Portada
METAR-TAF:

METAR-TAF

Aeropuertos :

Córdoba, España

Aeropuerto de Córdoba

latitud: 37-51N, longitud: 004-51W, altitud: 90 m

Observación

El informe se hizo hace 30 minutos, a las 08:00 UTC
Viento 2 kt del este
Temperatura 5°C
Humedad 87%
Presión 1020 hPa
Visibilidad 10 km o más
sin nubes por debajo de 1500 m y sin presencia de cumulonimbus.

METAR: LEBA 180800Z 10002KT CAVOK 05/03 Q1020

Hora: 09:30 (08:30 UTC)

Pronóstico

El informe se hizo hace 3 horas y 30 minutos, a las 05:00 UTC
Pronóstico válido del 18 a las 06 UTC al 18 a las 15 UTC
Viento 2 kt con dirección variable
Visibilidad 10 km o más
sin nubes por debajo de 1500 m y sin presencia de cumulonimbus.

TAF: LEBA 180500Z 1806/1815 VRB02KT CAVOK

Observaciones y pronósticos meteorológicos de más de 4000 aeropuertos (mensajes METAR y TAF).

Los puntos amarillos y rojos representan las estaciones disponibles.

Ponga el ratón en el punto deseado para ver el nombre de la estación.

Haga clic para ver las observaciones y los pronósticos meteorológicos.

Para cambiar el mapa : haga clic en los botones verdes con una cruz de color negro para hacer un zoom, en el botón verde con un guión para alejar o en las flechas verdes para mapas adyacentes.


METAR-TAF: